Hatsu Excel — VSXV3 — position and weather

sailwx.info

Track history (hours):
 
Tides and Currents Weather Stations Pressure Air Temp Water Temp Dewpoint Dewpoint Depression Visibility Wind Speed Wind Dir Waves Ship Positions

Hatsu Excel

Last reported at 2017-Aug-17 12:00 UTC. Time now 2017-Aug-17 15:36 UTC.
Position N 37°12' E 145°12'.

Type: Ship (hazmat cat D). MMSI: 235479000.

Wind from 070 at 19 knots

Barometer 1012.0 mb
Air temperature 27.0 ° C
Dewpoint 24.1 ° C
Water temperature 23.0 ° C

Date/timePositionNaut miles runAvg speedWind from/ knotsBaromVisibWave heightAir tempDewpointWater temp
2017-Aug-17 12:00N 37°12' E 145°12'24920.8 070 / 191012.0 27.024.123.0
2017-Aug-17 00:00N 34°36' E 141°12'22718.9 070 / 221009.010.8 31.028.328.0
2017-Aug-16 12:00N 32°48' E 137°12'24420.3 070 / 161007.0 29.027.626.0
2017-Aug-16 00:00N 31°24' E 132°42'12821.3 250 / 161007.0 5.4 33.030.428.0
2017-Aug-15 18:00N 30°36' E 130°24'12020.0 260 / 151007.010.8 31.031.030.0
2017-Aug-15 12:00N 29°36' E 128°24'13221.9 270 / 151008.0 33.030.433.0
2017-Aug-15 06:00N 28°24' E 126°18'11619.3 240 / 161009.010.8 36.029.429.0
2017-Aug-15 00:00N 27°18' E 124°30'25219.6 230 / 201010.010.8 34.031.433.0
2017-Aug-14 11:09N 25°01' E 120°34'621.4
2017-Aug-14 10:52N 24°58' E 120°28'1021.0
2017-Aug-14 10:24N 24°52' E 120°19'2620.5
2017-Aug-14 09:09N 24°39' E 119°56'4020.2
2017-Aug-14 07:11N 24°16' E 119°19'419.9
2017-Aug-14 06:59N 24°14' E 119°16'1820.4
2017-Aug-14 06:08N 24°05' E 118°60'320.8
2017-Aug-14 06:00N 24°03' E 118°57'1520.9
2017-Aug-14 05:15N 23°55' E 118°43'621.0
2017-Aug-14 05:00N 23°51' E 118°38'1321.0
2017-Aug-14 04:23N 23°44' E 118°26'821.1
2017-Aug-14 04:00N 23°40' E 118°19'1320.4
2017-Aug-14 03:22N 23°34' E 118°07'819.7
2017-Aug-14 02:59N 23°30' E 117°60'6818.7
2017-Aug-13 23:22N 22°53' E 116°58'718.8
2017-Aug-13 23:00N 22°49' E 116°52'144 6.3
2017-Aug-12 23:57N 22°34' E 114°16'0 0.0
2017-Aug-12 23:26N 22°34' E 114°16'0 0.0
2017-Aug-12 20:57N 22°34' E 114°16'  
2017-Aug-10 08:57N 23°41' E 117°58'613.2
2017-Aug-10 08:30N 23°46' E 118°02'713.6
2017-Aug-10 08:00N 23°51' E 118°07'713.4
2017-Aug-10 07:30N 23°57' E 118°11'713.6
2017-Aug-10 07:00N 24°02' E 118°16'613.0
2017-Aug-10 06:30N 24°07' E 118°19'612.4
2017-Aug-10 06:00N 24°13' E 118°17'714.4
2017-Aug-10 05:31N 24°19' E 118°12'713.0
2017-Aug-10 05:00N 24°23' E 118°07'510.7
2017-Aug-10 04:30N 24°26' E 118°02'1 2.8
2017-Aug-10 04:01N 24°27' E 118°00'0 0.0
2017-Aug-10 03:31N 24°27' E 118°00'0 0.0
2017-Aug-10 03:00N 24°27' E 118°00'0 0.0
2017-Aug-10 02:30N 24°27' E 118°00'0 0.0
2017-Aug-10 02:01N 24°27' E 118°00'0 0.0
2017-Aug-10 01:31N 24°27' E 118°00'0 0.0
2017-Aug-10 01:00N 24°27' E 118°00'0 0.1
2017-Aug-10 00:31N 24°27' E 118°00'0 0.1
2017-Aug-10 00:00N 24°27' E 118°00'0 0.0
2017-Aug-09 23:30N 24°27' E 118°00'0 0.0
2017-Aug-09 23:01N 24°27' E 118°00'0 0.0
2017-Aug-09 22:30N 24°27' E 118°00'0 0.0
2017-Aug-09 22:01N 24°27' E 118°00'0 0.0
2017-Aug-09 21:28N 24°27' E 118°00'0 0.0
2017-Aug-09 20:58N 24°27' E 118°00'0 0.1
2017-Aug-09 20:30N 24°27' E 118°00'0 0.1
2017-Aug-09 20:01N 24°27' E 118°00'0 0.0
2017-Aug-09 19:31N 24°27' E 118°00'0 0.0
2017-Aug-09 19:00N 24°27' E 118°00'0 0.0
2017-Aug-09 18:31N 24°27' E 118°00'0 0.0
2017-Aug-09 18:01N 24°27' E 118°00'0 0.0
2017-Aug-09 17:30N 24°27' E 118°00'0 0.0
2017-Aug-09 17:00N 24°27' E 118°00'0 0.0
2017-Aug-09 16:30N 24°27' E 118°00'0 0.0
2017-Aug-09 16:01N 24°27' E 118°00'0 0.0
2017-Aug-09 15:30N 24°27' E 118°00'0 0.0
2017-Aug-09 15:01N 24°27' E 118°00'0 0.0
2017-Aug-09 14:28N 24°27' E 118°00'0 0.0
2017-Aug-09 14:01N 24°27' E 118°00'0 0.0
2017-Aug-09 13:24N 24°27' E 118°00'0 0.0
2017-Aug-09 13:00N 24°27' E 118°00'0 0.4
2017-Aug-09 12:31N 24°27' E 118°00'2 3.3
2017-Aug-09 12:01N 24°26' E 118°02'5 9.5
2017-Aug-09 11:30N 24°24' E 118°07'4 7.6
2017-Aug-09 11:01N 24°21' E 118°10'3 5.8
2017-Aug-09 10:30N 24°19' E 118°12'3 6.4
2017-Aug-09 10:01N 24°16' E 118°14'4 7.5
2017-Aug-09 09:30N 24°15' E 118°18'510.7
2017-Aug-09 09:00N 24°17' E 118°23'2 4.7
2017-Aug-09 08:30N 24°19' E 118°24'0 0.1
2017-Aug-09 07:24N 24°19' E 118°24'0 0.0
2017-Aug-09 07:00N 24°19' E 118°24'0 0.0
2017-Aug-09 06:29N 24°19' E 118°24'0 0.1
2017-Aug-09 06:00N 24°19' E 118°24'0 0.1
2017-Aug-09 05:30N 24°19' E 118°24'0 0.0
2017-Aug-09 04:11N 24°19' E 118°24'0 0.0
2017-Aug-09 03:48N 24°19' E 118°24'0 0.1
2017-Aug-09 03:23N 24°19' E 118°24'0 0.0
2017-Aug-09 02:56N 24°19' E 118°24'0 0.1
2017-Aug-09 02:20N 24°19' E 118°24'0 0.1
2017-Aug-09 01:50N 24°19' E 118°24'0 0.0
2017-Aug-09 01:18N 24°19' E 118°24'0 0.1
2017-Aug-09 00:59N 24°19' E 118°24'0 0.1
2017-Aug-09 00:29N 24°19' E 118°24'0 0.0
2017-Aug-09 00:00N 24°19' E 118°24'0 0.0
2017-Aug-08 23:11N 24°19' E 118°24'0 0.0
2017-Aug-08 22:56N 24°19' E 118°24'0 0.0
2017-Aug-08 22:11N 24°19' E 118°24'0 0.0
2017-Aug-08 21:56N 24°19' E 118°24'0 0.0
2017-Aug-08 21:17N 24°19' E 118°24'0 0.0
2017-Aug-08 20:20N 24°19' E 118°24'0 0.0
2017-Aug-08 19:48N 24°19' E 118°24'0 0.0
2017-Aug-08 19:20N 24°19' E 118°24'0 0.1
2017-Aug-08 18:54N 24°19' E 118°24'0 0.0
2017-Aug-08 18:11N 24°19' E 118°24'0 0.1
2017-Aug-08 17:54N 24°19' E 118°24'0 0.0
2017-Aug-08 17:30N 24°19' E 118°24'0 0.0
2017-Aug-08 14:24N 24°19' E 118°24'0 0.1
2017-Aug-08 13:54N 24°19' E 118°24'0 0.2
2017-Aug-08 13:17N 24°19' E 118°24'1 5.0
2017-Aug-08 13:00N 24°19' E 118°26'611.4
2017-Aug-08 12:29N 24°17' E 118°32'612.3
2017-Aug-08 11:58N 24°18' E 118°39'612.0
2017-Aug-08 11:28N 24°21' E 118°45'612.1
2017-Aug-08 11:00N 24°23' E 118°50'1112.4
2017-Aug-08 10:08N 24°27' E 119°01'612.5
2017-Aug-08 09:38N 24°29' E 119°08'212.5
2017-Aug-08 09:30N 24°30' E 119°09'712.3
2017-Aug-08 08:55N 24°33' E 119°17'512.1
2017-Aug-08 08:30N 24°34' E 119°22'612.0
2017-Aug-08 07:58N 24°37' E 119°28'  
Track history (hours):
 
Tides and Currents Weather Stations Pressure Air Temp Water Temp Dewpoint Dewpoint Depression Visibility Wind Speed Wind Dir Waves Ship Positions

Hatsu Excel

Last reported at 2017-Aug-17 12:00 UTC. Time now 2017-Aug-17 15:36 UTC.
Position N 37°12' E 145°12'.

Type: Ship (hazmat cat D). MMSI: 235479000.

Wind from 070 at 19 knots

Barometer 1012.0 mb
Air temperature 27.0 ° C
Dewpoint 24.1 ° C
Water temperature 23.0 ° C

Date/timePositionNaut miles runAvg speedWind from/ knotsBaromVisibWave heightAir tempDewpointWater temp
2017-Aug-17 12:00N 37°12' E 145°12'24920.8 070 / 191012.0 27.024.123.0
2017-Aug-17 00:00N 34°36' E 141°12'22718.9 070 / 221009.010.8 31.028.328.0
2017-Aug-16 12:00N 32°48' E 137°12'24420.3 070 / 161007.0 29.027.626.0
2017-Aug-16 00:00N 31°24' E 132°42'12821.3 250 / 161007.0 5.4 33.030.428.0
2017-Aug-15 18:00N 30°36' E 130°24'12020.0 260 / 151007.010.8 31.031.030.0
2017-Aug-15 12:00N 29°36' E 128°24'13221.9 270 / 151008.0 33.030.433.0
2017-Aug-15 06:00N 28°24' E 126°18'11619.3 240 / 161009.010.8 36.029.429.0
2017-Aug-15 00:00N 27°18' E 124°30'25219.6 230 / 201010.010.8 34.031.433.0
2017-Aug-14 11:09N 25°01' E 120°34'621.4
2017-Aug-14 10:52N 24°58' E 120°28'1021.0
2017-Aug-14 10:24N 24°52' E 120°19'2620.5
2017-Aug-14 09:09N 24°39' E 119°56'4020.2
2017-Aug-14 07:11N 24°16' E 119°19'419.9
2017-Aug-14 06:59N 24°14' E 119°16'1820.4
2017-Aug-14 06:08N 24°05' E 118°60'320.8
2017-Aug-14 06:00N 24°03' E 118°57'1520.9
2017-Aug-14 05:15N 23°55' E 118°43'621.0
2017-Aug-14 05:00N 23°51' E 118°38'1321.0
2017-Aug-14 04:23N 23°44' E 118°26'821.1
2017-Aug-14 04:00N 23°40' E 118°19'1320.4
2017-Aug-14 03:22N 23°34' E 118°07'819.7
2017-Aug-14 02:59N 23°30' E 117°60'6818.7
2017-Aug-13 23:22N 22°53' E 116°58'718.8
2017-Aug-13 23:00N 22°49' E 116°52'144 6.3
2017-Aug-12 23:57N 22°34' E 114°16'0 0.0
2017-Aug-12 23:26N 22°34' E 114°16'0 0.0
2017-Aug-12 20:57N 22°34' E 114°16'  
2017-Aug-10 08:57N 23°41' E 117°58'613.2
2017-Aug-10 08:30N 23°46' E 118°02'713.6
2017-Aug-10 08:00N 23°51' E 118°07'713.4
2017-Aug-10 07:30N 23°57' E 118°11'713.6
2017-Aug-10 07:00N 24°02' E 118°16'613.0
2017-Aug-10 06:30N 24°07' E 118°19'612.4
2017-Aug-10 06:00N 24°13' E 118°17'714.4
2017-Aug-10 05:31N 24°19' E 118°12'713.0
2017-Aug-10 05:00N 24°23' E 118°07'510.7
2017-Aug-10 04:30N 24°26' E 118°02'1 2.8
2017-Aug-10 04:01N 24°27' E 118°00'0 0.0
2017-Aug-10 03:31N 24°27' E 118°00'0 0.0
2017-Aug-10 03:00N 24°27' E 118°00'0 0.0
2017-Aug-10 02:30N 24°27' E 118°00'0 0.0
2017-Aug-10 02:01N 24°27' E 118°00'0 0.0
2017-Aug-10 01:31N 24°27' E 118°00'0 0.0
2017-Aug-10 01:00N 24°27' E 118°00'0 0.1
2017-Aug-10 00:31N 24°27' E 118°00'0 0.1
2017-Aug-10 00:00N 24°27' E 118°00'0 0.0
2017-Aug-09 23:30N 24°27' E 118°00'0 0.0
2017-Aug-09 23:01N 24°27' E 118°00'0 0.0
2017-Aug-09 22:30N 24°27' E 118°00'0 0.0
2017-Aug-09 22:01N 24°27' E 118°00'0 0.0
2017-Aug-09 21:28N 24°27' E 118°00'0 0.0
2017-Aug-09 20:58N 24°27' E 118°00'0 0.1
2017-Aug-09 20:30N 24°27' E 118°00'0 0.1
2017-Aug-09 20:01N 24°27' E 118°00'0 0.0
2017-Aug-09 19:31N 24°27' E 118°00'0 0.0
2017-Aug-09 19:00N 24°27' E 118°00'0 0.0
2017-Aug-09 18:31N 24°27' E 118°00'0 0.0
2017-Aug-09 18:01N 24°27' E 118°00'0 0.0
2017-Aug-09 17:30N 24°27' E 118°00'0 0.0
2017-Aug-09 17:00N 24°27' E 118°00'0 0.0
2017-Aug-09 16:30N 24°27' E 118°00'0 0.0
2017-Aug-09 16:01N 24°27' E 118°00'0 0.0
2017-Aug-09 15:30N 24°27' E 118°00'0 0.0
2017-Aug-09 15:01N 24°27' E 118°00'0 0.0
2017-Aug-09 14:28N 24°27' E 118°00'0 0.0
2017-Aug-09 14:01N 24°27' E 118°00'0 0.0
2017-Aug-09 13:24N 24°27' E 118°00'0 0.0
2017-Aug-09 13:00N 24°27' E 118°00'0 0.4
2017-Aug-09 12:31N 24°27' E 118°00'2 3.3
2017-Aug-09 12:01N 24°26' E 118°02'5 9.5
2017-Aug-09 11:30N 24°24' E 118°07'4 7.6
2017-Aug-09 11:01N 24°21' E 118°10'3 5.8
2017-Aug-09 10:30N 24°19' E 118°12'3 6.4
2017-Aug-09 10:01N 24°16' E 118°14'4 7.5
2017-Aug-09 09:30N 24°15' E 118°18'510.7
2017-Aug-09 09:00N 24°17' E 118°23'2 4.7
2017-Aug-09 08:30N 24°19' E 118°24'0 0.1
2017-Aug-09 07:24N 24°19' E 118°24'0 0.0
2017-Aug-09 07:00N 24°19' E 118°24'0 0.0
2017-Aug-09 06:29N 24°19' E 118°24'0 0.1
2017-Aug-09 06:00N 24°19' E 118°24'0 0.1
2017-Aug-09 05:30N 24°19' E 118°24'0 0.0
2017-Aug-09 04:11N 24°19' E 118°24'0 0.0
2017-Aug-09 03:48N 24°19' E 118°24'0 0.1
2017-Aug-09 03:23N 24°19' E 118°24'0 0.0
2017-Aug-09 02:56N 24°19' E 118°24'0 0.1
2017-Aug-09 02:20N 24°19' E 118°24'0 0.1
2017-Aug-09 01:50N 24°19' E 118°24'0 0.0
2017-Aug-09 01:18N 24°19' E 118°24'0 0.1
2017-Aug-09 00:59N 24°19' E 118°24'0 0.1
2017-Aug-09 00:29N 24°19' E 118°24'0 0.0
2017-Aug-09 00:00N 24°19' E 118°24'0 0.0
2017-Aug-08 23:11N 24°19' E 118°24'0 0.0
2017-Aug-08 22:56N 24°19' E 118°24'0 0.0
2017-Aug-08 22:11N 24°19' E 118°24'0 0.0
2017-Aug-08 21:56N 24°19' E 118°24'0 0.0
2017-Aug-08 21:17N 24°19' E 118°24'0 0.0
2017-Aug-08 20:20N 24°19' E 118°24'0 0.0
2017-Aug-08 19:48N 24°19' E 118°24'0 0.0
2017-Aug-08 19:20N 24°19' E 118°24'0 0.1
2017-Aug-08 18:54N 24°19' E 118°24'0 0.0
2017-Aug-08 18:11N 24°19' E 118°24'0 0.1
2017-Aug-08 17:54N 24°19' E 118°24'0 0.0
2017-Aug-08 17:30N 24°19' E 118°24'0 0.0
2017-Aug-08 14:24N 24°19' E 118°24'0 0.1
2017-Aug-08 13:54N 24°19' E 118°24'0 0.2
2017-Aug-08 13:17N 24°19' E 118°24'1 5.0
2017-Aug-08 13:00N 24°19' E 118°26'611.4
2017-Aug-08 12:29N 24°17' E 118°32'612.3
2017-Aug-08 11:58N 24°18' E 118°39'612.0
2017-Aug-08 11:28N 24°21' E 118°45'612.1
2017-Aug-08 11:00N 24°23' E 118°50'1112.4
2017-Aug-08 10:08N 24°27' E 119°01'612.5
2017-Aug-08 09:38N 24°29' E 119°08'212.5
2017-Aug-08 09:30N 24°30' E 119°09'712.3
2017-Aug-08 08:55N 24°33' E 119°17'512.1
2017-Aug-08 08:30N 24°34' E 119°22'612.0
2017-Aug-08 07:58N 24°37' E 119°28'  

Dump ship's entire track history